This is the latest recevied weather packets stored in our database for station/object W5CRT. If no packets are shown the sender has not sent any weather packets the latest 10 day(s).
| Time | Temp. | Humidity | Pressure | Rain* | Wind** | Luminosity | Snow |
|---|---|---|---|---|---|---|---|
| 1777402590 | 28.33° C | 76% | 1009.3 hPa | 0 mm | - | 490 W/m² | - |
| 1777401686 | 28.33° C | 78% | 1010.1 hPa | 0 mm | - | 1190 W/m² | - |
| 1777401384 | 27.78° C | 77% | 1010.1 hPa | 0 mm | - | 648 W/m² | - |
| 1777401080 | 28.33° C | 76% | 1010.1 hPa | 0 mm | - | 412 W/m² | - |
| 1777400775 | 27.78° C | 77% | 1009.8 hPa | 0 mm | - | 492 W/m² | - |
| 1777400168 | 27.22° C | 79% | 1010.3 hPa | 0 mm | - | 626 W/m² | - |
| 1777398350 | 28.33° C | 77% | 1010.6 hPa | 0 mm | - | 498 W/m² | - |
| 1777397744 | 27.78° C | 79% | 1010.8 hPa | 0 mm | - | 454 W/m² | - |
| 1777397439 | 27.78° C | 78% | 1010.6 hPa | 0 mm | - | 469 W/m² | - |
| 1777397136 | 27.22° C | 79% | 1010.8 hPa | 0 mm | - | 529 W/m² | - |
| 1777396833 | 27.78° C | 79% | 1010.7 hPa | 0 mm | - | 463 W/m² | - |
| 1777396226 | 26.67° C | 81% | 1011 hPa | 0 mm | - | 419 W/m² | - |
| 1777395314 | 26.11° C | 84% | 1011 hPa | 0 mm | - | 312 W/m² | - |
| 1777395012 | 26.11° C | 84% | 1011.2 hPa | 0 mm | - | 156 W/m² | - |
| 1777393797 | 26.11° C | 84% | 1011.6 hPa | 0 mm | - | 286 W/m² | - |
| 1777393496 | 25.56° C | 85% | 1011.3 hPa | 0 mm | - | 321 W/m² | - |
| 1777392281 | 25° C | 86% | 1011.2 hPa | 0 mm | - | 77 W/m² | - |
| 1777391676 | 25° C | 86% | 1011.2 hPa | 0 mm | - | 120 W/m² | - |
| 1777391070 | 25° C | 86% | 1011.2 hPa | 0 mm | - | 88 W/m² | - |
| 1777390462 | 25° C | 87% | 1011.1 hPa | 0 mm | - | 188 W/m² | - |
| 1777390159 | 25° C | 88% | 1011.1 hPa | 0 mm | - | 93 W/m² | - |
| 1777389248 | 24.44° C | 88% | 1010.9 hPa | 0 mm | - | 48 W/m² | - |
| 1777388947 | 24.44° C | 88% | 1010.8 hPa | 0 mm | - | 53 W/m² | - |
| 1777388340 | 24.44° C | 88% | 1010.7 hPa | 0 mm | - | 36 W/m² | - |
| 1777388040 | 25° C | 88% | 1010.9 hPa | 0 mm | - | 36 W/m² | - |
* Rain latest hour (hover to see other rain measurements)
** Current wind speed in m/s (hover to see current wind gust speed)